Time;durP1;ratioP1;P1;durP2;ratioP2;P2;SDS_P1;SDS_P2;PMS_P1;PMS_P2;Temp;Humidity;BMP_temperature;BMP_pressure;BME280_temperature;BME280_humidity;BME280_pressure;Samples;Min_cycle;Max_cycle;Signal;HPM_P1;HPM_P2
2022/10/28 00:02:23;;;;;;;6.40;4.80;;;13.80;99.90;;;;;;5052479;28;20481;-52
2022/10/28 00:04:50;;;;;;;7.60;5.00;;;13.80;99.90;;;;;;5052831;28;20481;-52
2022/10/28 00:07:16;;;;;;;8.33;5.07;;;13.80;99.90;;;;;;5051876;28;20527;-53
2022/10/28 00:09:43;;;;;;;9.10;4.57;;;13.70;99.90;;;;;;5053185;28;20511;-52
2022/10/28 00:12:09;;;;;;;5.10;4.40;;;13.70;99.90;;;;;;5050464;28;20590;-52
2022/10/28 00:14:37;;;;;;;5.00;4.50;;;13.60;99.90;;;;;;5053268;28;20508;-51
2022/10/28 00:17:04;;;;;;;8.37;4.83;;;13.60;99.90;;;;;;5060847;28;20531;-53
2022/10/28 00:19:31;;;;;;;8.40;4.80;;;13.60;99.90;;;;;;5054920;28;20503;-52
2022/10/28 00:21:57;;;;;;;9.73;5.50;;;13.50;99.90;;;;;;5049940;28;20454;-52
2022/10/28 00:24:24;;;;;;;7.50;4.30;;;13.50;99.90;;;;;;5050101;28;20477;-52
2022/10/28 00:26:51;;;;;;;8.70;4.40;;;13.50;99.90;;;;;;5051943;28;21056;-52
2022/10/28 00:29:19;;;;;;;11.97;5.03;;;13.50;99.90;;;;;;5059701;28;20512;-53
2022/10/28 00:31:47;;;;;;;6.10;4.57;;;13.50;99.90;;;;;;5060376;28;20872;-52
2022/10/28 00:34:16;;;;;;;7.40;4.63;;;13.50;99.90;;;;;;5052089;28;20462;-52
2022/10/28 00:36:44;;;;;;;6.80;4.90;;;13.50;99.90;;;;;;5050536;28;20465;-53
2022/10/28 00:39:13;;;;;;;16.17;5.13;;;13.50;99.90;;;;;;5049588;28;20457;-53
2022/10/28 00:41:41;;;;;;;8.37;4.60;;;13.60;99.90;;;;;;5052389;28;20877;-52
2022/10/28 00:44:45;;;;;;;5.50;4.50;;;13.60;99.90;;;;;;5052805;28;21041;-53
2022/10/28 00:47:18;;;;;;;5.13;4.07;;;13.60;99.90;;;;;;5052272;28;20453;-52
2022/10/28 00:49:46;;;;;;;7.20;4.57;;;13.60;99.90;;;;;;5051994;28;20519;-52
2022/10/28 00:52:18;;;;;;;5.43;4.10;;;13.60;99.90;;;;;;5051658;28;20892;-51
2022/10/28 00:54:45;;;;;;;8.93;5.50;;;13.60;99.90;;;;;;5045378;28;20457;-51
2022/10/28 00:57:16;;;;;;;6.77;4.43;;;13.60;99.90;;;;;;5055494;28;20457;-53
2022/10/28 00:59:46;;;;;;;8.50;5.40;;;13.60;99.90;;;;;;5060681;28;21100;-53
2022/10/28 01:02:14;;;;;;;11.50;4.87;;;13.60;99.90;;;;;;5052101;28;20703;-53
2022/10/28 01:04:42;;;;;;;5.10;4.10;;;13.50;99.90;;;;;;5051482;28;20485;-52
2022/10/28 01:07:10;;;;;;;4.43;4.03;;;13.60;99.90;;;;;;5041765;28;20466;-52
2022/10/28 01:09:37;;;;;;;5.67;4.30;;;13.60;99.90;;;;;;5060812;28;20457;-51
2022/10/28 01:12:12;;;;;;;8.13;4.70;;;13.60;99.90;;;;;;5049407;28;21015;-52
2022/10/28 01:14:51;;;;;;;4.90;4.40;;;13.70;99.90;;;;;;5048282;28;20507;-52
2022/10/28 01:17:36;;;;;;;5.60;4.10;;;13.70;99.90;;;;;;5051705;28;20465;-52
2022/10/28 01:20:54;;;;;;;9.10;4.63;;;13.60;99.90;;;;;;5054510;28;21009;-53
2022/10/28 01:23:27;;;;;;;8.53;4.47;;;13.60;99.90;;;;;;5046182;28;20477;-52
2022/10/28 01:26:29;;;;;;;5.17;4.10;;;13.60;99.90;;;;;;5051469;28;20466;-53
2022/10/28 01:29:20;;;;;;;8.97;3.93;;;13.60;99.90;;;;;;5051968;28;20461;-53
2022/10/28 01:31:53;;;;;;;5.23;4.40;;;13.70;99.90;;;;;;5037243;28;20461;-52
2022/10/28 01:34:27;;;;;;;4.87;4.23;;;13.80;99.90;;;;;;5049931;28;20454;-53
2022/10/28 01:36:58;;;;;;;7.83;5.00;;;13.80;99.90;;;;;;5051713;28;20470;-53
2022/10/28 01:39:32;;;;;;;8.87;4.97;;;13.80;99.90;;;;;;5066172;28;20458;-52
2022/10/28 01:42:07;;;;;;;9.63;4.50;;;13.80;99.90;;;;;;5046623;28;20503;-54
2022/10/28 01:44:43;;;;;;;6.50;4.70;;;13.80;99.90;;;;;;5048807;28;20477;-52
2022/10/28 01:47:15;;;;;;;10.77;4.30;;;13.80;99.90;;;;;;5051001;28;20934;-52
2022/10/28 01:49:48;;;;;;;4.90;4.13;;;13.90;99.90;;;;;;5052217;28;20438;-52
2022/10/28 01:52:21;;;;;;;8.73;4.80;;;13.80;99.90;;;;;;5049643;28;20482;-52
2022/10/28 01:54:52;;;;;;;12.37;4.57;;;13.80;99.90;;;;;;5052618;28;20462;-53
2022/10/28 01:57:19;;;;;;;6.63;4.93;;;13.70;99.90;;;;;;5049646;28;20515;-53
2022/10/28 01:59:48;;;;;;;5.53;4.50;;;13.70;99.90;;;;;;5051795;28;20466;-52
2022/10/28 02:02:17;;;;;;;7.80;4.73;;;13.70;99.90;;;;;;5047549;28;20477;-51
2022/10/28 02:04:44;;;;;;;6.40;4.30;;;13.70;99.90;;;;;;5049592;28;20527;-53
2022/10/28 02:07:11;;;;;;;6.73;4.97;;;13.70;99.90;;;;;;5048756;28;20492;-52
2022/10/28 02:09:53;;;;;;;7.47;4.73;;;13.70;99.90;;;;;;5051321;28;20485;-54
2022/10/28 02:12:25;;;;;;;4.10;3.77;;;13.70;99.90;;;;;;5033895;28;20482;-53
2022/10/28 02:15:07;;;;;;;8.47;5.40;;;13.70;99.90;;;;;;5052534;28;20462;-53
2022/10/28 02:17:44;;;;;;;7.03;4.80;;;13.70;99.90;;;;;;5057815;28;20466;-52
2022/10/28 02:20:17;;;;;;;10.50;6.37;;;13.80;99.90;;;;;;5050195;28;20493;-52
2022/10/28 02:22:49;;;;;;;7.30;5.40;;;13.80;99.90;;;;;;5048828;28;20547;-52
2022/10/28 02:25:20;;;;;;;10.00;5.70;;;13.80;99.90;;;;;;5060427;22;20490;-50
2022/10/28 02:27:53;;;;;;;7.37;5.20;;;13.70;99.90;;;;;;5049537;28;21040;-50
2022/10/28 02:30:23;;;;;;;4.87;4.23;;;13.60;99.90;;;;;;5050237;28;20496;-51
2022/10/28 02:32:55;;;;;;;7.10;4.53;;;13.50;99.90;;;;;;5050520;28;20465;-51
2022/10/28 02:35:27;;;;;;;9.20;5.10;;;13.50;99.90;;;;;;5037074;28;20501;-50
2022/10/28 02:37:56;;;;;;;7.23;4.53;;;13.50;99.90;;;;;;5031213;28;20953;-50
2022/10/28 02:40:27;;;;;;;7.57;4.27;;;13.40;99.90;;;;;;5031096;28;20533;-49
2022/10/28 02:42:57;;;;;;;6.77;4.70;;;13.30;99.90;;;;;;5029288;28;21050;-49
2022/10/28 02:45:28;;;;;;;6.20;4.07;;;13.30;99.90;;;;;;5028929;28;20544;-51
2022/10/28 02:47:59;;;;;;;10.10;4.00;;;13.30;99.90;;;;;;5030860;28;20466;-51
2022/10/28 02:50:32;;;;;;;9.00;4.50;;;13.30;99.90;;;;;;5030806;28;20462;-50
2022/10/28 02:53:02;;;;;;;7.57;5.43;;;13.20;99.90;;;;;;5029885;28;20463;-51
2022/10/28 02:55:40;;;;;;;8.90;4.30;;;13.10;99.90;;;;;;5030444;28;20474;-50
2022/10/28 02:58:07;;;;;;;9.20;4.57;;;13.00;99.90;;;;;;5025564;28;20474;-50
2022/10/28 03:00:34;;;;;;;6.13;4.27;;;13.00;99.90;;;;;;5030572;28;20516;-50
2022/10/28 03:03:02;;;;;;;9.20;4.73;;;12.80;99.90;;;;;;5032549;28;20485;-50
2022/10/28 03:05:28;;;;;;;6.00;4.10;;;12.80;99.90;;;;;;5030428;28;20597;-50
2022/10/28 03:07:55;;;;;;;11.30;4.70;;;12.70;99.90;;;;;;5031413;28;21006;-50
2022/10/28 03:10:22;;;;;;;13.43;3.93;;;12.70;99.90;;;;;;5028809;28;20847;-51
2022/10/28 03:12:48;;;;;;;12.50;4.47;;;12.60;99.90;;;;;;5029541;28;20462;-50
2022/10/28 03:15:15;;;;;;;12.73;4.97;;;12.50;99.90;;;;;;5029303;28;20532;-50
2022/10/28 03:17:41;;;;;;;5.90;5.03;;;12.60;99.90;;;;;;5030119;28;20489;-50
2022/10/28 03:20:11;;;;;;;6.43;4.43;;;12.50;99.90;;;;;;5028471;28;20816;-50
2022/10/28 03:22:37;;;;;;;5.20;4.67;;;12.40;99.90;;;;;;5029404;28;20458;-51
2022/10/28 03:25:04;;;;;;;13.20;4.57;;;12.30;99.90;;;;;;5033175;28;20846;-51
2022/10/28 03:27:31;;;;;;;7.10;4.33;;;12.30;99.90;;;;;;5033237;28;20504;-50
2022/10/28 03:29:57;;;;;;;9.10;5.63;;;12.30;99.90;;;;;;5033909;28;20514;-51
2022/10/28 03:32:24;;;;;;;6.40;4.17;;;12.20;99.90;;;;;;5030302;28;20541;-50
2022/10/28 03:34:51;;;;;;;7.40;3.50;;;12.20;99.90;;;;;;5031441;28;20828;-50
2022/10/28 03:37:19;;;;;;;8.53;4.03;;;12.20;99.90;;;;;;5033148;28;20547;-50
2022/10/28 03:39:45;;;;;;;6.10;3.80;;;12.20;99.90;;;;;;5033252;28;20803;-50
2022/10/28 03:42:12;;;;;;;13.57;5.00;;;12.10;99.90;;;;;;5032129;28;20531;-51
2022/10/28 03:44:38;;;;;;;6.47;4.53;;;12.10;99.90;;;;;;5030391;28;20486;-51
2022/10/28 03:47:05;;;;;;;7.53;4.80;;;12.10;99.90;;;;;;5033954;28;20462;-51
2022/10/28 03:49:31;;;;;;;16.70;4.73;;;12.10;99.90;;;;;;5033806;28;20901;-51
2022/10/28 03:51:58;;;;;;;10.33;4.33;;;12.00;99.90;;;;;;5033642;28;20463;-50
2022/10/28 03:54:26;;;;;;;9.73;3.97;;;12.00;99.90;;;;;;5032489;28;20474;-51
2022/10/28 03:56:52;;;;;;;11.63;3.90;;;11.90;99.90;;;;;;5034165;28;20528;-51
2022/10/28 03:59:19;;;;;;;7.47;4.47;;;11.80;99.90;;;;;;5032564;28;20489;-50
2022/10/28 04:01:45;;;;;;;9.73;4.50;;;11.70;99.90;;;;;;5034205;28;20451;-51
2022/10/28 04:04:12;;;;;;;8.57;4.30;;;11.70;99.90;;;;;;5029937;28;20474;-51
2022/10/28 04:06:39;;;;;;;6.50;4.13;;;11.70;99.90;;;;;;5033832;28;20463;-50
2022/10/28 04:09:05;;;;;;;4.57;4.17;;;11.70;99.90;;;;;;5035427;28;20816;-50
2022/10/28 04:11:33;;;;;;;8.30;4.57;;;11.70;99.90;;;;;;5039204;28;20446;-51
2022/10/28 04:14:00;;;;;;;6.93;3.50;;;11.60;99.90;;;;;;5036799;28;20455;-50
2022/10/28 04:16:26;;;;;;;15.87;4.30;;;11.60;99.90;;;;;;5036065;28;20861;-51
2022/10/28 04:18:53;;;;;;;6.57;4.40;;;11.50;99.90;;;;;;5033100;28;20466;-50
2022/10/28 04:21:19;;;;;;;6.10;4.17;;;11.50;99.90;;;;;;5031865;28;20459;-50
2022/10/28 04:23:46;;;;;;;8.93;4.30;;;11.40;99.90;;;;;;5030155;28;20455;-51
2022/10/28 04:26:13;;;;;;;13.47;4.40;;;11.40;99.90;;;;;;5031162;28;20996;-50
2022/10/28 04:28:41;;;;;;;5.67;4.37;;;11.40;99.90;;;;;;5023527;28;21003;-51
2022/10/28 04:31:08;;;;;;;12.80;4.40;;;11.30;98.00;;;;;;5031241;28;20455;-50
2022/10/28 04:33:35;;;;;;;7.07;4.07;;;11.30;96.30;;;;;;5029073;28;20462;-50
2022/10/28 04:36:02;;;;;;;9.00;3.67;;;11.30;93.60;;;;;;5032867;28;20475;-50
2022/10/28 04:38:28;;;;;;;6.83;3.60;;;11.30;90.90;;;;;;5033023;28;20459;-50
2022/10/28 04:40:55;;;;;;;9.73;4.70;;;11.20;89.10;;;;;;5031316;28;20526;-50
2022/10/28 04:43:21;;;;;;;5.57;3.83;;;11.30;86.50;;;;;;5029848;28;20491;-50
2022/10/28 04:45:49;;;;;;;6.13;3.40;;;11.20;85.20;;;;;;5032360;28;20584;-50
2022/10/28 04:48:16;;;;;;;10.13;4.23;;;11.20;83.50;;;;;;5031700;28;20462;-50
2022/10/28 04:50:42;;;;;;;8.73;3.60;;;11.20;81.90;;;;;;5032934;28;20462;-50
2022/10/28 04:53:09;;;;;;;9.53;4.43;;;11.10;82.00;;;;;;5029844;28;20462;-50
2022/10/28 04:55:36;;;;;;;12.30;4.30;;;11.10;79.50;;;;;;5023580;28;20541;-49
2022/10/28 04:58:02;;;;;;;4.67;4.13;;;11.10;77.30;;;;;;5030050;28;20954;-50
2022/10/28 05:00:30;;;;;;;7.50;4.50;;;11.10;76.70;;;;;;5032088;28;20529;-50
2022/10/28 05:03:01;;;;;;;7.47;4.83;;;11.10;75.60;;;;;;5029231;28;20532;-50
2022/10/28 05:05:28;;;;;;;7.47;3.93;;;11.10;74.00;;;;;;5032218;28;20881;-51
2022/10/28 05:07:54;;;;;;;9.77;4.30;;;11.00;72.60;;;;;;5037613;28;20446;-50
2022/10/28 05:10:21;;;;;;;6.80;4.70;;;11.10;71.10;;;;;;5034247;28;20462;-51
2022/10/28 05:12:47;;;;;;;14.77;5.77;;;11.10;70.30;;;;;;5032422;28;20467;-51
2022/10/28 05:15:15;;;;;;;6.50;5.10;;;11.10;67.00;;;;;;5031633;28;20474;-51
2022/10/28 05:17:44;;;;;;;10.50;4.63;;;11.20;64.30;;;;;;5025679;28;20467;-51
2022/10/28 05:20:14;;;;;;;9.90;5.53;;;11.20;60.70;;;;;;5030665;28;20489;-50
2022/10/28 05:22:45;;;;;;;13.27;4.17;;;11.30;58.90;;;;;;5029290;28;20521;-51
2022/10/28 05:25:12;;;;;;;14.40;4.60;;;11.30;57.90;;;;;;5024055;28;20492;-51
2022/10/28 05:27:39;;;;;;;7.03;4.83;;;11.50;54.30;;;;;;5030571;28;20455;-50
2022/10/28 05:30:07;;;;;;;10.33;5.30;;;11.60;50.70;;;;;;5028173;28;20533;-51
2022/10/28 05:32:33;;;;;;;4.97;4.47;;;11.70;49.00;;;;;;5029415;28;20991;-52
2022/10/28 05:35:00;;;;;;;9.83;5.60;;;11.70;47.50;;;;;;5030645;28;20479;-51
2022/10/28 05:37:28;;;;;;;6.00;4.63;;;11.60;47.70;;;;;;5030775;28;20455;-50
2022/10/28 05:39:54;;;;;;;8.07;4.10;;;11.70;46.20;;;;;;5031961;28;20463;-50
2022/10/28 05:42:21;;;;;;;15.40;5.03;;;11.70;45.70;;;;;;5031587;28;20516;-50
2022/10/28 05:44:47;;;;;;;8.90;4.80;;;11.70;45.30;;;;;;5025764;28;20479;-50
2022/10/28 05:47:14;;;;;;;22.63;5.57;;;11.70;45.40;;;;;;5032371;28;20948;-55
2022/10/28 05:49:41;;;;;;;7.03;4.67;;;11.80;41.70;;;;;;5028767;28;20528;-50
2022/10/28 05:52:07;;;;;;;8.57;5.07;;;11.90;40.70;;;;;;5031178;28;21014;-50
2022/10/28 05:54:35;;;;;;;9.90;4.60;;;12.00;39.70;;;;;;5026526;28;20538;-51
2022/10/28 05:57:02;;;;;;;8.77;4.70;;;12.00;39.60;;;;;;5032564;28;20435;-50
2022/10/28 05:59:28;;;;;;;6.67;5.43;;;12.00;39.70;;;;;;5029241;28;20548;-50
2022/10/28 06:01:55;;;;;;;9.03;4.73;;;12.00;40.90;;;;;;5027127;28;21439;-50
2022/10/28 06:04:21;;;;;;;12.07;5.40;;;12.00;40.00;;;;;;5030236;28;20900;-50
2022/10/28 06:06:48;;;;;;;18.73;6.27;;;12.10;39.00;;;;;;5029998;28;20540;-50
2022/10/28 06:09:14;;;;;;;10.33;6.47;;;12.10;38.50;;;;;;5031483;28;20459;-50
2022/10/28 06:11:42;;;;;;;12.25;6.32;;;12.10;38.00;;;;;;5028995;28;20507;-50
2022/10/28 06:14:09;;;;;;;12.03;6.67;;;12.20;37.70;;;;;;5031256;28;20200;-50
2022/10/28 06:16:37;;;;;;;11.10;5.90;;;12.20;37.90;;;;;;5030009;28;20455;-50
2022/10/28 06:19:04;;;;;;;12.20;5.67;;;12.20;36.20;;;;;;5031803;28;20451;-51
2022/10/28 06:21:31;;;;;;;10.57;6.63;;;12.40;34.00;;;;;;5028842;28;20875;-50
2022/10/28 06:23:57;;;;;;;7.93;6.80;;;12.50;33.20;;;;;;5028169;28;20459;-50
2022/10/28 06:26:24;;;;;;;12.87;7.03;;;12.60;31.60;;;;;;5029303;28;20570;-50
2022/10/28 06:28:52;;;;;;;8.33;6.77;;;12.60;32.60;;;;;;5029558;28;20470;-50
2022/10/28 06:31:18;;;;;;;12.27;5.37;;;12.70;34.50;;;;;;5030357;28;20520;-50
2022/10/28 06:33:45;;;;;;;13.97;6.60;;;12.70;37.00;;;;;;5028961;28;20881;-49
2022/10/28 06:36:11;;;;;;;10.20;6.10;;;12.70;44.10;;;;;;5021983;28;20478;-50
2022/10/28 06:38:38;;;;;;;9.20;5.47;;;12.70;46.80;;;;;;5016795;28;20509;-51
2022/10/28 06:41:05;;;;;;;9.23;5.77;;;12.70;54.60;;;;;;5040205;28;20500;-51
2022/10/28 06:43:31;;;;;;;6.87;6.03;;;12.70;61.40;;;;;;5030741;28;20505;-49
2022/10/28 06:46:02;;;;;;;7.57;6.33;;;12.80;67.70;;;;;;5028446;28;20509;-50
2022/10/28 06:48:29;;;;;;;8.10;5.70;;;12.80;70.20;;;;;;5030925;28;20483;-56
2022/10/28 06:50:56;;;;;;;7.63;6.10;;;12.80;72.40;;;;;;5030639;28;20467;-49
2022/10/28 06:53:23;;;;;;;10.43;6.47;;;12.80;76.70;;;;;;5030794;28;20467;-50
2022/10/28 06:55:52;;;;;;;13.30;5.53;;;12.90;78.70;;;;;;5030978;28;20486;-51
2022/10/28 06:58:19;;;;;;;7.10;6.13;;;13.00;86.50;;;;;;5033012;28;20527;-50
2022/10/28 07:00:46;;;;;;;12.87;5.50;;;13.10;92.80;;;;;;5032713;28;20459;-50
2022/10/28 07:03:14;;;;;;;15.83;6.00;;;13.10;96.90;;;;;;5033729;28;20492;-49
2022/10/28 07:05:41;;;;;;;10.00;5.90;;;13.20;99.10;;;;;;5032421;28;20958;-50
2022/10/28 07:08:07;;;;;;;10.53;5.97;;;13.30;99.70;;;;;;5034187;28;20462;-50
2022/10/28 07:10:34;;;;;;;9.43;6.20;;;13.40;99.90;;;;;;5033232;28;20537;-50
2022/10/28 07:13:00;;;;;;;10.47;6.37;;;13.60;99.90;;;;;;5032826;28;20488;-49
2022/10/28 07:15:27;;;;;;;10.97;6.00;;;13.90;99.90;;;;;;5031874;28;20556;-50
2022/10/28 07:17:54;;;;;;;8.50;6.13;;;14.20;99.90;;;;;;5035650;28;20929;-50
2022/10/28 07:20:23;;;;;;;10.60;6.43;;;14.50;99.90;;;;;;5033941;28;20467;-49
2022/10/28 07:22:55;;;;;;;11.47;5.90;;;14.70;99.90;;;;;;5032625;28;20960;-50
2022/10/28 07:25:22;;;;;;;9.30;5.60;;;15.00;20.40;;;;;;5033467;28;20486;-50
2022/10/28 07:27:48;;;;;;;12.70;5.67;;;15.60;32.70;;;;;;5031913;28;20854;-50
2022/10/28 07:30:15;;;;;;;11.27;5.43;;;15.90;82.10;;;;;;5032843;28;20490;-50
2022/10/28 07:32:42;;;;;;;10.37;5.67;;;16.20;80.80;;;;;;5031819;28;20463;-50
2022/10/28 07:35:08;;;;;;;8.27;5.40;;;16.50;99.90;;;;;;5029919;28;20478;-50
2022/10/28 07:37:38;;;;;;;8.10;4.80;;;16.70;99.90;;;;;;5033215;28;22176;-50
2022/10/28 07:40:05;;;;;;;11.63;5.30;;;16.50;99.90;;;;;;5033305;28;20831;-50
2022/10/28 07:42:33;;;;;;;8.17;4.70;;;16.40;99.90;;;;;;5035789;28;20462;-52
2022/10/28 07:44:59;;;;;;;11.10;4.80;;;16.20;99.90;;;;;;5032700;28;20475;-50
2022/10/28 07:47:26;;;;;;;14.80;5.20;;;16.00;97.10;;;;;;5042318;28;20565;-50
2022/10/28 07:49:53;;;;;;;10.60;5.73;;;15.80;90.10;;;;;;5042592;28;20492;-49
2022/10/28 07:52:19;;;;;;;19.83;6.50;;;15.90;89.50;;;;;;5041922;28;20481;-51
2022/10/28 07:54:47;;;;;;;10.90;5.40;;;16.10;92.60;;;;;;5036259;28;20478;-50
2022/10/28 07:57:14;;;;;;;11.50;4.70;;;16.10;98.30;;;;;;5032693;28;20505;-50
2022/10/28 07:59:40;;;;;;;18.43;5.40;;;16.20;99.90;;;;;;5024486;28;20454;-50
2022/10/28 08:02:07;;;;;;;7.43;5.30;;;16.50;99.90;;;;;;5031784;28;20874;-49
2022/10/28 08:04:34;;;;;;;6.13;4.67;;;16.60;99.90;;;;;;5023710;28;20579;-50
2022/10/28 08:07:00;;;;;;;9.73;4.97;;;16.50;99.90;;;;;;5031155;28;20483;-53
2022/10/28 08:09:27;;;;;;;7.37;4.60;;;16.60;99.90;;;;;;5030516;28;20462;-49
2022/10/28 08:11:56;;;;;;;8.97;4.70;;;16.60;99.90;;;;;;5032563;28;20467;-49
2022/10/28 08:14:23;;;;;;;14.10;5.20;;;16.50;96.80;;;;;;5031633;28;20943;-49
2022/10/28 08:16:50;;;;;;;9.60;4.00;;;16.50;99.50;;;;;;5032449;28;20462;-50
2022/10/28 08:19:16;;;;;;;8.37;4.67;;;16.50;99.90;;;;;;5032529;28;20520;-50
2022/10/28 08:21:43;;;;;;;8.80;4.93;;;16.50;99.90;;;;;;5033075;28;20439;-52
2022/10/28 08:24:09;;;;;;;7.30;4.97;;;16.80;99.90;;;;;;5032059;28;20462;-52
2022/10/28 08:26:36;;;;;;;6.50;4.73;;;17.00;99.90;;;;;;5033331;28;20471;-50
2022/10/28 08:29:04;;;;;;;6.80;4.30;;;17.30;99.90;;;;;;5032476;28;20521;-51
2022/10/28 08:31:32;;;;;;;6.17;4.20;;;17.00;99.90;;;;;;5032355;28;20463;-51
2022/10/28 08:33:58;;;;;;;11.43;3.97;;;16.90;99.90;;;;;;5034313;28;20488;-51
2022/10/28 08:36:25;;;;;;;9.23;4.40;;;16.80;99.90;;;;;;5032999;28;20439;-51
2022/10/28 08:38:52;;;;;;;15.53;5.03;;;16.80;99.90;;;;;;5031132;28;20459;-51
2022/10/28 08:41:30;;;;;;;11.37;4.60;;;16.80;99.90;;;;;;5031233;28;20882;-51
2022/10/28 08:44:24;;;;;;;11.80;5.00;;;16.70;99.90;;;;;;5031831;28;20486;-51
2022/10/28 08:47:05;;;;;;;6.43;4.20;;;16.90;99.90;;;;;;5027964;28;20514;-51
2022/10/28 08:49:36;;;;;;;15.87;4.57;;;18.50;99.90;;;;;;5031822;28;20466;-51
2022/10/28 08:52:11;;;;;;;8.60;4.30;;;19.40;99.90;;;;;;5031459;28;20463;-51
2022/10/28 08:54:46;;;;;;;8.17;4.60;;;19.20;99.90;;;;;;5033607;28;20495;-50
2022/10/28 08:57:18;;;;;;;12.80;4.13;;;18.90;99.90;;;;;;5033267;28;20470;-51
2022/10/28 08:59:50;;;;;;;6.87;4.07;;;19.20;99.90;;;;;;5036124;28;20482;-51
2022/10/28 09:02:21;;;;;;;12.83;4.53;;;19.60;99.90;;;;;;5030348;28;20819;-51
2022/10/28 09:04:51;;;;;;;10.33;4.73;;;19.00;99.90;;;;;;5037884;28;20490;-49
2022/10/28 09:07:19;;;;;;;11.33;4.47;;;19.90;32.60;;;;;;5035643;28;20486;-48
2022/10/28 09:09:48;;;;;;;6.47;3.73;;;20.60;49.10;;;;;;5030983;28;20854;-49
2022/10/28 09:12:26;;;;;;;14.27;4.50;;;19.80;31.20;;;;;;5029533;28;20463;-49
2022/10/28 09:15:21;;;;;;;14.90;4.93;;;20.40;45.10;;;;;;5015460;28;20522;-50
2022/10/28 09:17:53;;;;;;;9.70;4.00;;;20.20;52.10;;;;;;5018604;28;20475;-49
2022/10/28 09:20:22;;;;;;;8.63;4.30;;;20.30;54.10;;;;;;5022908;28;20516;-49
2022/10/28 09:22:55;;;;;;;7.47;4.47;;;19.90;38.00;;;;;;5028501;28;20467;-50
2022/10/28 09:25:26;;;;;;;7.80;4.00;;;19.80;31.80;;;;;;5032555;28;20475;-49
2022/10/28 09:28:14;;;;;;;7.57;3.70;;;19.50;24.20;;;;;;5031984;28;20483;-49
2022/10/28 09:30:51;;;;;;;7.20;3.80;;;19.70;99.90;;;;;;5024827;28;20529;-50
2022/10/28 09:33:30;;;;;;;7.73;3.70;;;20.00;26.00;;;;;;5023813;28;20463;-50
2022/10/28 09:35:57;;;;;;;8.87;3.70;;;20.20;31.80;;;;;;5027823;28;20484;-50
2022/10/28 09:38:28;;;;;;;8.33;4.30;;;21.20;61.90;;;;;;5029150;28;20876;-50
2022/10/28 09:41:01;;;;;;;6.63;4.10;;;22.60;92.50;;;;;;5032327;28;20497;-50
2022/10/28 09:43:31;;;;;;;7.83;4.00;;;22.30;99.90;;;;;;5012967;28;20510;-49
2022/10/28 09:46:03;;;;;;;10.03;4.17;;;23.20;99.90;;;;;;5024434;28;20497;-49
2022/10/28 09:48:32;;;;;;;13.23;3.57;;;21.90;99.90;;;;;;5027155;28;20446;-50
2022/10/28 09:51:00;;;;;;;14.93;4.80;;;20.80;83.10;;;;;;5032416;28;20501;-50
2022/10/28 09:53:38;;;;;;;10.73;3.63;;;20.30;68.00;;;;;;5028937;28;20463;-49
2022/10/28 09:56:06;;;;;;;7.20;3.30;;;20.50;61.50;;;;;;5024806;28;20538;-49
2022/10/28 09:58:33;;;;;;;12.07;3.60;;;22.10;86.60;;;;;;5027165;28;21099;-50
2022/10/28 10:01:02;;;;;;;13.20;3.70;;;22.80;99.90;;;;;;5022211;28;20971;-50
2022/10/28 10:03:29;;;;;;;10.00;4.00;;;21.70;94.20;;;;;;5024792;28;20459;-49
2022/10/28 10:05:58;;;;;;;6.40;3.50;;;21.40;92.50;;;;;;5024061;28;20479;-49
2022/10/28 10:08:25;;;;;;;12.03;3.77;;;20.80;79.00;;;;;;5026154;28;20464;-50
2022/10/28 10:10:55;;;;;;;9.37;3.80;;;20.40;64.70;;;;;;5025140;28;20995;-51
2022/10/28 10:13:25;;;;;;;4.90;3.63;;;20.50;55.70;;;;;;5023999;28;20973;-52
2022/10/28 10:15:55;;;;;;;7.40;3.60;;;21.00;68.80;;;;;;5026094;28;20988;-53
2022/10/28 10:18:26;;;;;;;12.07;3.90;;;21.30;78.20;;;;;;5028029;28;20466;-51
2022/10/28 10:20:57;;;;;;;8.20;3.47;;;21.20;69.40;;;;;;5028862;28;20803;-51
2022/10/28 10:23:28;;;;;;;4.37;3.50;;;21.00;72.70;;;;;;5023557;28;20463;-52
2022/10/28 10:25:57;;;;;;;8.03;3.37;;;20.80;71.40;;;;;;5020135;28;20487;-51
2022/10/28 10:28:25;;;;;;;16.57;3.67;;;21.00;72.10;;;;;;5024529;28;20568;-52
2022/10/28 10:30:54;;;;;;;16.20;4.00;;;21.40;77.90;;;;;;5027056;28;20546;-52
2022/10/28 10:33:24;;;;;;;11.07;3.73;;;21.50;80.10;;;;;;5028251;28;20528;-51
2022/10/28 10:35:57;;;;;;;22.10;3.67;;;21.50;82.70;;;;;;5021440;28;20486;-52
2022/10/28 10:38:24;;;;;;;10.00;2.90;;;21.50;86.00;;;;;;5025635;28;21002;-51
2022/10/28 10:40:52;;;;;;;6.33;3.10;;;21.40;83.40;;;;;;5030653;28;20520;-51
2022/10/28 10:43:23;;;;;;;9.97;3.77;;;21.20;82.60;;;;;;5025561;28;20458;-52
2022/10/28 10:45:52;;;;;;;7.33;4.13;;;21.00;77.80;;;;;;5022203;28;20551;-51
2022/10/28 10:48:19;;;;;;;9.03;4.00;;;21.70;87.00;;;;;;5026953;28;20483;-50
2022/10/28 10:50:49;;;;;;;4.47;2.90;;;21.90;91.00;;;;;;5028928;28;20865;-53
2022/10/28 10:53:20;;;;;;;10.43;3.03;;;22.10;94.10;;;;;;5030433;28;20825;-52
2022/10/28 10:55:51;;;;;;;6.77;3.20;;;22.90;98.80;;;;;;5023202;28;20940;-51
2022/10/28 10:58:19;;;;;;;8.03;2.77;;;22.40;99.80;;;;;;5023772;28;20980;-51
2022/10/28 11:00:49;;;;;;;6.00;3.00;;;23.10;99.90;;;;;;5024000;28;20554;-53
2022/10/28 11:03:19;;;;;;;6.60;3.20;;;22.90;99.90;;;;;;5022242;28;20498;-52
2022/10/28 11:05:52;;;;;;;8.10;2.83;;;22.60;99.90;;;;;;5024777;28;21049;-51
2022/10/28 11:08:33;;;;;;;14.80;3.83;;;22.40;99.90;;;;;;5029993;28;20995;-50
2022/10/28 11:11:12;;;;;;;6.93;3.10;;;22.10;99.90;;;;;;5022358;28;20982;-53
2022/10/28 11:13:40;;;;;;;5.30;3.27;;;22.90;99.90;;;;;;5027809;28;20476;-51
2022/10/28 11:16:16;;;;;;;7.23;3.70;;;22.40;99.90;;;;;;5025474;28;20972;-52
2022/10/28 11:18:45;;;;;;;8.40;3.20;;;22.80;99.90;;;;;;5025618;28;20463;-51
2022/10/28 11:21:41;;;;;;;9.33;3.30;;;23.20;99.90;;;;;;5024514;28;20501;-51
2022/10/28 11:24:34;;;;;;;7.07;2.83;;;23.10;99.90;;;;;;5028994;28;20862;-51
2022/10/28 11:27:09;;;;;;;9.23;3.23;;;22.70;99.90;;;;;;5023704;28;21015;-52
2022/10/28 11:29:35;;;;;;;7.17;2.93;;;22.50;99.90;;;;;;5024932;28;20454;-51
2022/10/28 11:32:25;;;;;;;14.43;3.63;;;22.30;99.90;;;;;;5022514;28;20880;-52
2022/10/28 11:35:17;;;;;;;12.30;3.13;;;22.30;99.90;;;;;;5023413;28;20502;-51
2022/10/28 11:37:57;;;;;;;6.10;3.00;;;22.20;99.90;;;;;;5024258;28;20481;-52
2022/10/28 11:40:32;;;;;;;10.47;3.30;;;22.20;99.90;;;;;;5023078;28;20540;-52
2022/10/28 11:43:19;;;;;;;20.03;3.53;;;22.20;99.90;;;;;;5025686;28;20458;-51
2022/10/28 11:45:56;;;;;;;6.90;2.37;;;22.30;99.90;;;;;;5027640;28;20520;-53
2022/10/28 11:48:37;;;;;;;6.83;3.20;;;22.30;99.90;;;;;;5038415;28;20485;-52
2022/10/28 11:51:14;;;;;;;14.30;3.20;;;22.60;99.90;;;;;;5039065;28;20462;-52
2022/10/28 11:53:56;;;;;;;6.87;2.57;;;23.00;99.90;;;;;;5032451;28;20462;-51
2022/10/28 11:56:32;;;;;;;6.90;3.03;;;23.00;99.90;;;;;;5030487;28;20517;-51
2022/10/28 11:59:12;;;;;;;12.10;3.10;;;23.00;99.90;;;;;;5034462;28;20438;-51
2022/10/28 12:01:50;;;;;;;7.67;2.77;;;23.20;99.90;;;;;;5030555;28;20454;-51
2022/10/28 12:04:52;;;;;;;13.43;4.00;;;23.30;99.90;;;;;;5026432;28;20536;-50
2022/10/28 12:07:42;;;;;;;14.63;3.47;;;23.10;99.90;;;;;;5027912;28;20997;-53
2022/10/28 12:10:20;;;;;;;11.60;2.57;;;22.90;99.90;;;;;;5033645;28;20455;-52
2022/10/28 12:13:01;;;;;;;8.17;3.77;;;22.70;99.90;;;;;;5030957;28;20462;-52
2022/10/28 12:15:34;;;;;;;12.63;3.80;;;22.60;99.90;;;;;;5031224;28;20858;-51
2022/10/28 12:18:10;;;;;;;9.50;3.00;;;22.50;99.90;;;;;;5032344;28;20859;-51
2022/10/28 12:20:42;;;;;;;9.53;2.70;;;22.40;99.90;;;;;;5030759;28;20462;-52
2022/10/28 12:23:12;;;;;;;8.90;3.00;;;22.40;99.90;;;;;;5031750;28;20489;-52
2022/10/28 12:25:43;;;;;;;7.70;3.17;;;22.50;99.90;;;;;;5028265;28;20491;-51
2022/10/28 12:28:18;;;;;;;13.40;3.80;;;22.60;99.90;;;;;;5031488;28;20518;-51
2022/10/28 12:30:46;;;;;;;16.17;3.83;;;22.50;99.90;;;;;;5031838;28;20512;-51
2022/10/28 12:33:16;;;;;;;6.77;3.30;;;22.70;99.90;;;;;;5030878;28;21001;-51
2022/10/28 12:35:48;;;;;;;16.13;4.90;;;22.70;99.90;;;;;;5029342;28;20498;-52
2022/10/28 12:38:19;;;;;;;7.77;3.30;;;23.00;99.90;;;;;;5026853;28;20451;-51
2022/10/28 12:40:51;;;;;;;3.43;2.60;;;23.20;99.90;;;;;;5030072;28;20455;-52
2022/10/28 12:43:24;;;;;;;14.83;4.60;;;23.10;99.90;;;;;;5030627;28;20517;-52
2022/10/28 12:45:54;;;;;;;7.37;3.77;;;23.40;99.90;;;;;;5024707;28;20489;-52
2022/10/28 12:48:30;;;;;;;9.00;3.40;;;23.50;99.90;;;;;;5021450;28;20478;-51
2022/10/28 12:51:03;;;;;;;6.03;2.87;;;23.50;99.90;;;;;;5025012;28;20462;-52
2022/10/28 12:53:36;;;;;;;7.30;3.53;;;23.60;99.90;;;;;;5037102;28;20548;-53
2022/10/28 12:56:12;;;;;;;14.03;3.80;;;23.70;99.90;;;;;;5024085;28;20518;-53
2022/10/28 12:58:46;;;;;;;15.00;3.37;;;23.60;99.90;;;;;;5026455;28;20462;-52
2022/10/28 13:01:17;;;;;;;13.00;3.43;;;24.00;99.90;;;;;;5023878;28;20900;-51